• Join FlightAware (Why Join?)
  • Login
  • US Flag 
08:25PM EDT


 

Airport Tracker/Info


-or-


 

Live Flight TrackerFlight Track Log ✈ CHQ5018 ✈ 26-Aug-2013 ✈ KMLI - KORD

Flight Track Log - Related Links

Times and Time Zones

All times are in EDT time to prevent confusion due to time zone crossing. See the CHQ5018 flight status page for this flight to view local times or setup timezone preferences in your user account.

Time Position Orientation Groundspeed Altitude Reporting Facility
EDT Latitude Longitude Course Direction KTS MPH feet Rate Location/Type
05:43PM 41.3836 -90.4817 98° East 276 318 6,800  Level Chicago Center
05:44PM 41.3919 -90.3758 84° East 287 330 9,700 2,640 Climbing Chicago Center
05:45PM 41.3981 -90.2475 86° East 289 333 12,300 1,560 Climbing Chicago Center
05:46PM 41.4033 -90.1306 87° East 309 356 13,000 300 Climbing Chicago Center
05:47PM 41.4334 -89.9126 90° East  Level FlightAware Approximate
05:47PM 41.4100 -90.0131 86° East 315 362 13,000  Level Chicago Center
05:48PM 41.4150 -89.9000 87° East 307 353 13,000  Level Chicago Center
05:49PM 41.4222 -89.7669 86° East 353 406 13,000  Level Chicago Center
05:50PM 41.4289 -89.6286 86° East 371 427 13,000  Level Chicago Center
05:51PM 41.4381 -89.4850 85° East 384 442 13,000 -480 Level Chicago Center
05:52PM 41.4561 -89.3150 82° East 385 443 12,100 -960 Descending Chicago Center
05:53PM 41.4692 -89.1686 83° East 382 440 11,100 -540 Descending Chicago Center
05:54PM 41.4808 -89.0344 83° East 369 425 11,000 -60 Descending Chicago Center
05:55PM 41.4939 -88.8994 83° East 370 426 11,000  Level Chicago Center
05:56PM 41.5333 -88.7731 67° East 380 437 11,000  Level Chicago Center
05:57PM 41.5767 -88.6522 64° Northeast 364 419 11,000  Level Chicago Center
05:58PM 41.6200 -88.5294 65° Northeast 366 421 11,000  Level Chicago Center
06:00PM 41.6636 -88.4017 65° Northeast 317 365 11,000 -480 Level Chicago Center
06:01PM 41.7017 -88.3031 63° Northeast 299 344 10,100 -960 Descending Chicago Center
06:02PM 41.7539 -88.2161 51° Northeast 299 344 9,100 -840 Descending Chicago Center
06:03PM 41.8019 -88.1342 52° Northeast 279 321 8,400 -840 Descending Chicago Center
06:04PM 41.8428 -88.0625 53° Northeast 246 283 7,400 -720 Descending Chicago Center
06:05PM 41.8831 -87.9869 54° Northeast 250 288 7,000 -240 Descending Chicago Center
06:06PM 41.8833 -87.8833 90° East 212 244 7,000  Level Chicago TRACON
06:07PM 41.8833 -87.8000 90° East 218 251 7,000 -300 Level Chicago TRACON
06:08PM 41.8833 -87.7167 90° East 215 247 6,400 -840 Descending Chicago TRACON
06:09PM 41.8833 -87.6333 90° East 211 243 5,300 -720 Descending Chicago TRACON
06:10PM 41.8833 -87.5667 90° East 211 243 5,000 -180 Descending Chicago TRACON
06:11PM 41.8833 -87.4833 90° East 209 241 5,000  Level Chicago TRACON
06:12PM 41.8833 -87.4000 90° East 205 236 5,000  Level Chicago TRACON
06:13PM 41.8833 -87.3333 90° East 203 234 5,000  Level Chicago TRACON
06:14PM 41.8833 -87.2667 90° East 209 241 5,000  Level Chicago TRACON
06:15PM 41.9167 -87.2333 37° Northeast 202 232 5,000  Level Chicago TRACON
06:16PM 41.9500 -87.2833 312° West 178 205 5,000  Level Chicago TRACON
06:17PM 41.9667 -87.3500 289° West 195 224 5,000  Level Chicago TRACON
06:18PM 41.9667 -87.4167 270° West 180 207 5,000  Level Chicago TRACON
06:19PM 41.9667 -87.4833 270° West 174 200 5,000  Level Chicago TRACON
06:20PM 41.9667 -87.5500 270° West 174 200 5,000 -180 Level Chicago TRACON
06:21PM 41.9667 -87.6167 270° West 171 197 4,700 -660 Descending Chicago TRACON
06:22PM 41.9667 -87.6667 270° West 170 196 3,700 -1,080 Descending Chicago TRACON
06:23PM 41.9667 -87.7333 270° West 173 199 2,700 -900 Descending Chicago TRACON
06:24PM 41.9667 -87.8000 270° West 138 159 1,900 -720 Descending Chicago TRACON
06:25PM 41.9667 -87.8500 270° West 129 148 1,300 -600 Descending Chicago TRACON